Home   Weather   Germany   Dreieich   Past weeks
Flag for Germany

Past Weather in Dreieich, Hesse, Germany — Yesterday and Last 2 Weeks

Currently: 54 °F. Passing clouds. (Weather station: Frankfurt-M-Flughafen Airport, Germany). See more current weather

Past Weather in Dreieich — Graph

°F

Dreieich Temperature Yesterday

Maximum temperature yesterday: 55 °F (at 3:20 pm)
Minimum temperature yesterday: 32 °F (at 3:50 am)
Average temperature yesterday: 43 °F

High & Low Weather Summary for the Past Weeks

 TemperatureHumidityPressure
High66 °F (Feb 23, 3:50 pm)100% (Feb 16, 3:50 am)30.69 "Hg (Feb 16, 3:50 am)
Low30 °F (Feb 18, 7:20 am)37% (Feb 25, 1:50 pm)29.83 "Hg (Feb 18, 6:50 pm)
Average43 °F78%30.30 "Hg
* Reported Feb 15 11:20 am — Mar 2 11:50 am, Dreieich. Weather by CustomWeather, © 2021

Note: Actual official high and low records may vary slightly from our data, if they occured in-between our weather recording intervals... More about our weather records

Dreieich Weather History for the Previous 24 Hours

Scroll right to see more
 ConditionsComfort  
Time TempWeatherWind HumidityBarometerVisibility
11:50 am
Tue, Mar 2
52 °FPassing clouds.5 mph54%30.51 "HgN/A
10:50 am50 °FPassing clouds.7 mph58%30.48 "HgN/A
10:20 am48 °FPassing clouds.7 mph62%30.48 "HgN/A
9:50 am45 °FSunny.8 mph66%30.48 "Hg10 mi
9:20 am45 °FSunny.9 mph66%30.48 "Hg10 mi
8:50 am43 °FSunny.8 mph71%30.48 "Hg10 mi
8:20 am41 °FSunny.8 mph76%30.48 "Hg10 mi
7:50 am39 °FSunny.9 mph75%30.48 "Hg10 mi
7:20 am37 °FSunny.8 mph81%30.48 "Hg10 mi
6:50 am36 °FClear.6 mph81%30.48 "Hg10 mi
6:20 am36 °FClear.8 mph87%30.48 "Hg10 mi
5:50 am37 °FClear.8 mph87%30.45 "Hg10 mi
5:20 am37 °FClear.10 mph87%30.45 "Hg10 mi
4:50 am37 °FClear.7 mph87%30.45 "Hg10 mi
4:20 am37 °FClear.6 mph87%30.45 "Hg10 mi
3:50 am36 °FPassing clouds.5 mph87%30.45 "HgN/A
3:20 am37 °FClear.7 mph87%30.45 "Hg10 mi
2:50 am39 °FClear.6 mph87%30.45 "Hg10 mi
2:20 am39 °FClear.2 mph87%30.45 "Hg10 mi
1:50 am39 °FClear.3 mph81%30.45 "Hg10 mi
1:20 am39 °FClear.3 mph81%30.45 "Hg10 mi
12:50 am39 °FClear.3 mph81%30.45 "Hg10 mi
12:20 am39 °FClear.6 mph87%30.45 "Hg10 mi
11:50 pm
Mon, Mar 1
39 °FClear.5 mph81%30.45 "Hg10 mi
11:20 pm45 °FClear.7 mph76%30.45 "Hg10 mi
10:50 pm45 °FClear.8 mph76%30.45 "Hg10 mi
10:20 pm45 °FClear.8 mph76%30.45 "Hg10 mi
9:50 pm46 °FClear.10 mph71%30.45 "Hg10 mi
9:20 pm46 °FClear.9 mph71%30.45 "Hg10 mi
8:50 pm46 °FClear.13 mph71%30.45 "Hg10 mi
8:20 pm46 °FClear.12 mph71%30.45 "Hg10 mi
7:50 pm46 °FClear.9 mph71%30.45 "Hg10 mi
7:20 pm48 °FClear.8 mph66%30.45 "Hg10 mi
6:50 pm46 °FClear.10 mph71%30.45 "Hg10 mi
6:20 pm48 °FClear.9 mph66%30.45 "Hg10 mi
5:50 pm52 °FSunny.9 mph58%30.42 "Hg10 mi
5:20 pm54 °FSunny.10 mph54%30.42 "Hg10 mi
4:50 pm54 °FSunny.10 mph54%30.45 "Hg10 mi
4:20 pm55 °FSunny.10 mph51%30.45 "Hg10 mi
3:50 pm55 °FPassing clouds.8 mph51%30.45 "HgN/A
3:20 pm55 °FPassing clouds.8 mph47%30.45 "HgN/A
2:50 pm54 °FPassing clouds.9 mph51%30.45 "HgN/A
2:20 pm54 °FPassing clouds.9 mph51%30.48 "HgN/A
1:50 pm54 °FPassing clouds.10 mph51%30.48 "HgN/A
1:20 pm52 °FPassing clouds.10 mph54%30.48 "HgN/A
Weather by CustomWeather, © 2021

See weather overview